createdAt,value
2023-05-06T00:00:48.598Z,61.64
2023-05-06T00:01:48.620Z,61.84
2023-05-06T00:02:48.713Z,61.86
2023-05-06T00:03:48.981Z,61.47
2023-05-06T00:04:48.841Z,61.38
2023-05-06T00:05:48.715Z,62.17
2023-05-06T00:06:48.737Z,62.80
2023-05-06T00:07:48.846Z,62.48
2023-05-06T00:08:48.803Z,62.05
2023-05-06T00:09:48.848Z,62.11
2023-05-06T00:10:48.877Z,61.85
2023-05-06T00:11:48.877Z,61.68
2023-05-06T00:12:49.170Z,61.37
2023-05-06T00:13:48.956Z,61.09
2023-05-06T00:14:48.961Z,61.06
2023-05-06T00:15:48.989Z,61.08
2023-05-06T00:16:49.070Z,61.08
2023-05-06T00:17:49.082Z,61.19
2023-05-06T00:18:49.093Z,60.95
2023-05-06T00:19:49.124Z,60.72
2023-05-06T00:20:49.153Z,60.96
2023-05-06T00:21:49.158Z,60.74
2023-05-06T00:22:49.165Z,61.28
2023-05-06T00:23:49.195Z,61.07
2023-05-06T00:24:49.218Z,60.88
2023-05-06T00:25:49.213Z,60.86
2023-05-06T00:26:49.239Z,61.00
2023-05-06T00:27:49.266Z,60.83
2023-05-06T00:28:49.347Z,60.99
2023-05-06T00:29:49.347Z,60.88
2023-05-06T00:30:49.358Z,60.86
2023-05-06T00:31:49.461Z,60.32
2023-05-06T00:32:49.489Z,60.24
2023-05-06T00:33:49.479Z,61.08
2023-05-06T00:34:49.496Z,60.51
2023-05-06T00:35:49.521Z,60.85
2023-05-06T00:36:49.706Z,60.53
2023-05-06T00:37:49.603Z,60.18
2023-05-06T00:38:49.644Z,60.55
2023-05-06T00:39:49.658Z,61.25
2023-05-06T00:40:49.677Z,62.28
2023-05-06T00:41:49.751Z,61.82
2023-05-06T00:42:49.770Z,62.67
2023-05-06T00:43:49.765Z,62.87
2023-05-06T00:44:49.823Z,62.74
2023-05-06T00:45:49.900Z,63.07
2023-05-06T00:46:49.879Z,62.77
2023-05-06T00:47:49.974Z,63.07
2023-05-06T00:48:49.974Z,63.36
2023-05-06T00:49:50.032Z,63.67
2023-05-06T00:50:50.066Z,63.83
2023-05-06T00:51:50.060Z,63.68
2023-05-06T00:52:50.173Z,63.90
2023-05-06T00:53:51.123Z,65.01
2023-05-06T00:54:50.138Z,65.77
2023-05-06T00:55:50.144Z,65.26
2023-05-06T00:56:50.157Z,64.86
2023-05-06T00:57:50.182Z,65.18
2023-05-06T00:58:50.214Z,65.86
2023-05-06T00:59:50.276Z,65.65
2023-05-06T01:00:50.313Z,65.27
2023-05-06T01:01:50.350Z,65.76
2023-05-06T01:02:50.466Z,65.61
2023-05-06T01:03:50.450Z,65.00
2023-05-06T01:04:50.463Z,65.50
2023-05-06T01:05:50.450Z,64.72
2023-05-06T01:06:50.547Z,64.61
2023-05-06T01:07:50.592Z,64.45
2023-05-06T01:08:50.643Z,64.55
2023-05-06T01:09:50.657Z,64.64
2023-05-06T01:10:50.803Z,64.52
2023-05-06T01:11:50.754Z,64.30
2023-05-06T01:12:50.802Z,64.21
2023-05-06T01:13:50.917Z,64.76
2023-05-06T01:14:50.825Z,64.83
2023-05-06T01:15:50.877Z,66.26
2023-05-06T01:16:50.885Z,66.09
2023-05-06T01:17:50.941Z,65.97
2023-05-06T01:18:50.937Z,66.19
2023-05-06T01:19:51.153Z,65.70
2023-05-06T01:20:50.978Z,66.29
2023-05-06T01:21:51.009Z,65.99
2023-05-06T01:22:51.004Z,65.66
2023-05-06T01:23:51.651Z,65.76
2023-05-06T01:24:51.091Z,65.13
2023-05-06T01:25:51.130Z,65.69
2023-05-06T01:26:51.182Z,65.48
2023-05-06T01:27:51.218Z,65.89
2023-05-06T01:28:51.222Z,67.40
2023-05-06T01:29:51.238Z,68.44
2023-05-06T01:30:51.241Z,68.77
2023-05-06T01:31:51.247Z,69.05
2023-05-06T01:32:51.305Z,68.60
2023-05-06T01:33:51.311Z,69.19
2023-05-06T01:34:51.329Z,68.36
2023-05-06T01:35:51.431Z,68.08
2023-05-06T01:36:51.418Z,67.39
2023-05-06T01:37:51.504Z,67.92
2023-05-06T01:38:51.502Z,67.59
2023-05-06T01:39:51.573Z,66.90
2023-05-06T01:40:51.646Z,67.26
2023-05-06T01:41:51.687Z,67.70
2023-05-06T01:42:51.751Z,67.66
2023-05-06T01:43:51.756Z,67.26
2023-05-06T01:44:51.829Z,68.68
2023-05-06T01:45:51.856Z,67.81
2023-05-06T01:46:51.868Z,67.84
2023-05-06T01:47:51.882Z,68.37
2023-05-06T01:48:51.947Z,68.60
2023-05-06T01:49:51.977Z,68.06
2023-05-06T01:50:52.039Z,67.57
2023-05-06T01:51:52.108Z,67.61
2023-05-06T01:52:52.108Z,67.52
2023-05-06T01:53:52.192Z,67.76
2023-05-06T01:54:52.165Z,68.56
2023-05-06T01:55:52.214Z,68.22
2023-05-06T01:56:52.256Z,68.22
2023-05-06T01:57:52.428Z,68.75
2023-05-06T01:58:52.356Z,68.39
2023-05-06T01:59:52.417Z,68.22
2023-05-06T02:00:52.435Z,67.33
2023-05-06T02:01:52.503Z,67.08
2023-05-06T02:02:52.733Z,68.26
2023-05-06T02:03:52.967Z,69.04
2023-05-06T02:04:52.522Z,67.64
2023-05-06T02:05:52.610Z,67.93
2023-05-06T02:06:52.590Z,67.85
2023-05-06T02:07:52.683Z,67.56
2023-05-06T02:08:52.691Z,68.22
2023-05-06T02:09:52.739Z,67.78
2023-05-06T02:10:52.750Z,67.37
2023-05-06T02:11:52.824Z,67.54
2023-05-06T02:12:52.985Z,67.08
2023-05-06T02:13:52.886Z,67.18
2023-05-06T02:14:52.967Z,67.30
2023-05-06T02:15:52.995Z,67.70
2023-05-06T02:16:53.022Z,67.49
2023-05-06T02:17:53.157Z,67.98
2023-05-06T02:18:53.107Z,67.45
2023-05-06T02:19:53.160Z,67.52
2023-05-06T02:20:53.126Z,67.72
2023-05-06T02:21:53.201Z,67.57
2023-05-06T02:22:53.308Z,67.64
2023-05-06T02:23:54.238Z,66.94
2023-05-06T02:24:53.346Z,66.79
2023-05-06T02:25:53.394Z,66.52
2023-05-06T02:26:53.434Z,67.80
2023-05-06T02:27:53.510Z,67.31
2023-05-06T02:28:53.547Z,66.97
2023-05-06T02:29:53.516Z,67.25
2023-05-06T02:30:53.550Z,67.40
2023-05-06T02:31:53.647Z,66.88
2023-05-06T02:32:53.739Z,66.53
2023-05-06T02:33:53.677Z,66.75
2023-05-06T02:34:53.688Z,65.91
2023-05-06T02:35:53.658Z,65.40
2023-05-06T02:36:53.726Z,65.25
2023-05-06T02:37:53.748Z,65.39
2023-05-06T02:38:53.815Z,65.74
2023-05-06T02:39:53.828Z,65.39
2023-05-06T02:40:53.852Z,65.55
2023-05-06T02:41:53.879Z,66.40
2023-05-06T02:42:54.233Z,66.16
2023-05-06T02:43:53.913Z,65.41
2023-05-06T02:44:53.970Z,65.22
2023-05-06T02:45:54.001Z,65.04
2023-05-06T02:46:53.967Z,65.44
2023-05-06T02:47:54.186Z,64.97
2023-05-06T02:48:54.019Z,64.57
2023-05-06T02:49:54.069Z,64.50
2023-05-06T02:50:54.098Z,64.47
2023-05-06T02:51:54.106Z,65.14
2023-05-06T02:52:54.126Z,64.80
2023-05-06T02:53:54.201Z,64.66
2023-05-06T02:54:54.276Z,64.41
2023-05-06T02:55:54.253Z,64.09
2023-05-06T02:56:54.266Z,63.96
2023-05-06T02:57:54.320Z,63.64
2023-05-06T02:58:54.289Z,63.78
2023-05-06T02:59:54.322Z,63.93
2023-05-06T03:00:54.460Z,64.10
2023-05-06T03:01:54.398Z,64.44
2023-05-06T03:02:54.477Z,65.12
2023-05-06T03:03:54.496Z,65.14
2023-05-06T03:04:54.532Z,65.20
2023-05-06T03:05:54.610Z,66.02
2023-05-06T03:06:54.575Z,65.44
2023-05-06T03:07:54.593Z,64.99
2023-05-06T03:08:54.584Z,64.60
2023-05-06T03:09:54.646Z,65.32
2023-05-06T03:10:54.651Z,65.31
2023-05-06T03:11:54.722Z,65.61
2023-05-06T03:12:54.833Z,65.55
2023-05-06T03:13:54.796Z,65.05
2023-05-06T03:14:54.833Z,64.77
2023-05-06T03:15:54.865Z,64.58
2023-05-06T03:16:54.950Z,64.20
2023-05-06T03:17:54.954Z,63.87
2023-05-06T03:18:54.926Z,63.48
2023-05-06T03:19:54.973Z,63.15
2023-05-06T03:20:55.014Z,62.85
2023-05-06T03:21:55.021Z,62.51
2023-05-06T03:22:55.709Z,62.34
2023-05-06T03:23:55.076Z,62.12
2023-05-06T03:24:55.184Z,61.94
2023-05-06T03:25:55.144Z,61.68
2023-05-06T03:26:55.157Z,61.50
2023-05-06T03:27:55.166Z,61.31
2023-05-06T03:28:55.201Z,61.23
2023-05-06T03:29:55.235Z,61.07
2023-05-06T03:30:55.279Z,60.97
2023-05-06T03:31:55.310Z,60.96
2023-05-06T03:32:55.599Z,61.15
2023-05-06T03:33:55.331Z,60.98
2023-05-06T03:34:55.416Z,60.93
2023-05-06T03:35:55.441Z,60.90
2023-05-06T03:36:55.443Z,60.99
2023-05-06T03:37:55.725Z,61.36
2023-05-06T03:38:55.492Z,61.19
2023-05-06T03:39:55.512Z,61.45
2023-05-06T03:40:55.525Z,61.54
2023-05-06T03:41:56.141Z,62.30
2023-05-06T03:42:55.568Z,61.91
2023-05-06T03:43:55.773Z,61.51
2023-05-06T03:44:55.610Z,61.38
2023-05-06T03:45:55.660Z,61.46
2023-05-06T03:46:55.676Z,61.36
2023-05-06T03:47:57.191Z,61.21
2023-05-06T03:48:55.705Z,61.04
2023-05-06T03:49:55.673Z,61.01
2023-05-06T03:50:55.653Z,61.29
2023-05-06T03:51:55.667Z,61.53
2023-05-06T03:52:55.659Z,61.37
2023-05-06T03:53:55.655Z,61.63
2023-05-06T03:54:55.620Z,61.59
2023-05-06T03:55:55.707Z,62.01
2023-05-06T03:56:55.609Z,62.27
2023-05-06T03:57:55.625Z,61.80
2023-05-06T03:58:55.643Z,61.80
2023-05-06T03:59:55.624Z,63.10
2023-05-06T04:00:55.645Z,63.33
2023-05-06T04:01:55.671Z,64.13
2023-05-06T04:02:55.638Z,64.56
2023-05-06T04:03:55.629Z,64.32
2023-05-06T04:04:55.651Z,64.99
2023-05-06T04:05:55.570Z,65.47
2023-05-06T04:06:55.536Z,64.58
2023-05-06T04:07:55.553Z,65.64
2023-05-06T04:08:55.552Z,66.17
2023-05-06T04:09:55.589Z,66.98
2023-05-06T04:10:55.532Z,66.62
2023-05-06T04:11:55.538Z,65.94
2023-05-06T04:12:55.637Z,66.22
2023-05-06T04:13:55.524Z,65.61
2023-05-06T04:14:55.480Z,65.04
2023-05-06T04:15:55.522Z,64.63
2023-05-06T04:16:55.525Z,64.39
2023-05-06T04:17:55.530Z,64.38
2023-05-06T04:18:55.600Z,64.16
2023-05-06T04:19:55.466Z,64.70
2023-05-06T04:20:55.551Z,64.04
2023-05-06T04:21:55.502Z,63.81
2023-05-06T04:22:55.426Z,63.48
2023-05-06T04:23:55.452Z,63.42
2023-05-06T04:24:55.430Z,63.29
2023-05-06T04:25:55.450Z,63.27
2023-05-06T04:26:55.397Z,63.22
2023-05-06T04:27:55.412Z,63.32
2023-05-06T04:28:55.400Z,63.66
2023-05-06T04:29:55.450Z,63.20
2023-05-06T04:30:55.425Z,62.81
2023-05-06T04:31:55.417Z,62.31
2023-05-06T04:32:55.440Z,61.90
2023-05-06T04:33:55.370Z,61.74
2023-05-06T04:34:55.363Z,61.63
2023-05-06T04:35:55.362Z,61.53
2023-05-06T04:36:55.380Z,61.41
2023-05-06T04:37:55.377Z,61.45
2023-05-06T04:38:55.374Z,61.38
2023-05-06T04:39:55.389Z,61.46
2023-05-06T04:40:55.407Z,61.88
2023-05-06T04:41:55.309Z,61.71
2023-05-06T04:42:55.430Z,62.06
2023-05-06T04:43:55.321Z,62.82
2023-05-06T04:44:55.328Z,63.27
2023-05-06T04:45:55.403Z,64.32
2023-05-06T04:46:55.295Z,64.25
2023-05-06T04:47:55.378Z,63.99
2023-05-06T04:48:55.362Z,63.82
2023-05-06T04:49:55.262Z,63.79
2023-05-06T04:50:55.305Z,63.53
2023-05-06T04:51:55.274Z,63.44
2023-05-06T04:52:55.256Z,62.78
2023-05-06T04:53:55.266Z,62.86
2023-05-06T04:54:55.258Z,63.14
2023-05-06T04:55:55.241Z,63.27
2023-05-06T04:56:55.236Z,63.20
2023-05-06T04:57:55.306Z,64.48
2023-05-06T04:58:55.740Z,64.34
2023-05-06T04:59:55.314Z,64.17
2023-05-06T05:00:55.497Z,64.57
2023-05-06T05:01:55.390Z,64.72
2023-05-06T05:02:55.477Z,64.87
2023-05-06T05:03:55.474Z,64.52
2023-05-06T05:04:55.437Z,64.63
2023-05-06T05:05:55.502Z,65.14
2023-05-06T05:06:55.506Z,64.95
2023-05-06T05:07:55.558Z,64.39
2023-05-06T05:08:55.636Z,64.63
2023-05-06T05:09:55.628Z,64.40
2023-05-06T05:10:55.658Z,64.59
2023-05-06T05:11:56.235Z,64.98
2023-05-06T05:12:55.772Z,64.92
2023-05-06T05:13:57.166Z,64.40
2023-05-06T05:14:55.834Z,64.71
2023-05-06T05:15:55.858Z,65.89
2023-05-06T05:16:55.943Z,65.63
2023-05-06T05:17:55.878Z,65.17
2023-05-06T05:18:55.898Z,65.33
2023-05-06T05:19:55.917Z,65.53
2023-05-06T05:20:55.946Z,65.28
2023-05-06T05:21:56.017Z,65.50
2023-05-06T05:22:56.042Z,64.74
2023-05-06T05:23:56.097Z,64.62
2023-05-06T05:24:56.193Z,63.97
2023-05-06T05:25:56.190Z,63.38
2023-05-06T05:26:56.217Z,63.26
2023-05-06T05:27:56.209Z,63.64
2023-05-06T05:28:56.297Z,62.93
2023-05-06T05:29:56.371Z,62.99
2023-05-06T05:30:56.412Z,62.55
2023-05-06T05:31:56.369Z,62.17
2023-05-06T05:32:56.577Z,62.17
2023-05-06T05:33:56.494Z,61.74
2023-05-06T05:34:56.537Z,61.30
2023-05-06T05:35:56.739Z,61.32
2023-05-06T05:36:56.646Z,60.99
2023-05-06T05:37:56.625Z,60.91
2023-05-06T05:38:57.285Z,60.87
2023-05-06T05:39:56.748Z,60.91
2023-05-06T05:40:56.771Z,60.82
2023-05-06T05:41:56.799Z,60.96
2023-05-06T05:42:57.751Z,60.58
2023-05-06T05:43:56.854Z,61.08
2023-05-06T05:44:56.892Z,61.34
2023-05-06T05:45:57.237Z,60.63
2023-05-06T05:46:56.906Z,60.00
2023-05-06T05:47:57.006Z,59.88
2023-05-06T05:48:56.925Z,59.70
2023-05-06T05:49:56.938Z,59.25
2023-05-06T05:50:56.947Z,59.11
2023-05-06T05:51:56.973Z,59.13
2023-05-06T05:52:56.994Z,58.95
2023-05-06T05:53:57.011Z,58.98
2023-05-06T05:54:57.068Z,58.89
2023-05-06T05:55:57.142Z,58.88
2023-05-06T05:56:57.225Z,58.77
2023-05-06T05:57:57.135Z,58.58
2023-05-06T05:58:57.202Z,58.55
2023-05-06T05:59:57.199Z,58.55
2023-05-06T06:00:58.214Z,58.69
2023-05-06T06:01:57.261Z,58.49
2023-05-06T06:02:57.338Z,58.60
2023-05-06T06:03:57.901Z,58.47
2023-05-06T06:04:57.365Z,58.79
2023-05-06T06:05:57.305Z,58.82
2023-05-06T06:06:57.302Z,58.94
2023-05-06T06:07:57.274Z,58.67
2023-05-06T06:08:57.439Z,58.69
2023-05-06T06:09:57.407Z,59.39
2023-05-06T06:10:57.372Z,57.89
2023-05-06T06:11:57.345Z,57.71
2023-05-06T06:12:57.374Z,58.03
2023-05-06T06:13:57.766Z,58.34
2023-05-06T06:14:57.399Z,58.99
2023-05-06T06:15:57.569Z,59.27
2023-05-06T06:16:57.468Z,59.38
2023-05-06T06:17:57.508Z,58.76
2023-05-06T06:18:57.575Z,58.79
2023-05-06T06:19:57.516Z,58.92
2023-05-06T06:20:57.577Z,58.90
2023-05-06T06:21:57.678Z,59.48
2023-05-06T06:22:57.749Z,59.13
2023-05-06T06:23:57.693Z,58.53
2023-05-06T06:24:58.778Z,58.05
2023-05-06T06:25:57.750Z,57.76
2023-05-06T06:26:57.826Z,57.62
2023-05-06T06:27:58.255Z,57.92
2023-05-06T06:28:57.929Z,57.33
2023-05-06T06:29:57.919Z,56.50
2023-05-06T06:30:57.954Z,56.78
2023-05-06T06:31:58.066Z,56.88
2023-05-06T06:32:58.051Z,57.13
2023-05-06T06:33:58.106Z,57.81
2023-05-06T06:34:58.139Z,56.64
2023-05-06T06:35:58.205Z,56.92
2023-05-06T06:36:58.265Z,56.82
2023-05-06T06:37:58.262Z,56.58
2023-05-06T06:38:58.306Z,56.49
2023-05-06T06:39:58.378Z,56.04
2023-05-06T06:40:58.403Z,55.75
2023-05-06T06:41:58.434Z,55.98
2023-05-06T06:42:58.484Z,56.40
2023-05-06T06:43:58.554Z,55.90
2023-05-06T06:44:58.608Z,56.92
2023-05-06T06:45:58.682Z,56.29
2023-05-06T06:46:58.608Z,57.23
2023-05-06T06:47:58.660Z,56.23
2023-05-06T06:48:58.702Z,55.77
2023-05-06T06:49:58.778Z,55.93
2023-05-06T06:50:58.794Z,55.15
2023-05-06T06:51:58.856Z,55.28
2023-05-06T06:52:58.926Z,55.02
2023-05-06T06:53:58.949Z,54.79
2023-05-06T06:54:58.936Z,54.58
2023-05-06T06:55:58.994Z,55.75
2023-05-06T06:56:59.002Z,55.24
2023-05-06T06:57:59.029Z,54.60
2023-05-06T06:58:59.051Z,54.52
2023-05-06T06:59:59.086Z,54.57
2023-05-06T07:00:59.159Z,53.82
2023-05-06T07:01:59.112Z,53.83
2023-05-06T07:02:59.190Z,54.05
2023-05-06T07:03:59.375Z,54.01
2023-05-06T07:04:59.256Z,54.32
2023-05-06T07:05:59.255Z,53.75
2023-05-06T07:06:59.334Z,54.00
2023-05-06T07:07:59.350Z,54.34
2023-05-06T07:08:59.382Z,53.61
2023-05-06T07:09:59.369Z,53.73
2023-05-06T07:10:59.446Z,53.47
2023-05-06T07:11:59.473Z,53.29
2023-05-06T07:12:59.562Z,53.36
2023-05-06T07:13:59.520Z,54.55
2023-05-06T07:14:59.573Z,54.30
2023-05-06T07:15:59.567Z,53.95
2023-05-06T07:16:59.725Z,54.08
2023-05-06T07:17:59.657Z,54.24
2023-05-06T07:18:59.724Z,54.63
2023-05-06T07:19:59.652Z,54.47
2023-05-06T07:20:59.701Z,54.59
2023-05-06T07:21:59.757Z,53.88
2023-05-06T07:22:59.801Z,54.09
2023-05-06T07:23:59.824Z,54.54
2023-05-06T07:24:59.840Z,54.72
2023-05-06T07:25:59.879Z,55.05
2023-05-06T07:26:59.895Z,54.16
2023-05-06T07:27:59.981Z,53.73
2023-05-06T07:29:00.067Z,53.64
2023-05-06T07:30:00.052Z,53.03
2023-05-06T07:31:00.041Z,53.86
2023-05-06T07:32:00.075Z,52.97
2023-05-06T07:33:00.367Z,52.81
2023-05-06T07:34:00.149Z,52.70
2023-05-06T07:35:00.208Z,52.56
2023-05-06T07:36:00.264Z,52.46
2023-05-06T07:37:00.295Z,51.46
2023-05-06T07:38:00.433Z,51.51
2023-05-06T07:39:00.411Z,51.32
2023-05-06T07:40:00.443Z,50.86
2023-05-06T07:41:00.448Z,50.67
2023-05-06T07:42:00.459Z,50.55
2023-05-06T07:43:00.512Z,49.39
2023-05-06T07:44:00.507Z,48.81
2023-05-06T07:45:00.552Z,50.05
2023-05-06T07:46:00.555Z,48.94
2023-05-06T07:47:00.684Z,49.04
2023-05-06T07:48:00.585Z,49.19
2023-05-06T07:49:00.610Z,48.91
2023-05-06T07:50:00.577Z,48.52
2023-05-06T07:51:00.665Z,48.90
2023-05-06T07:52:00.651Z,49.52
2023-05-06T07:53:00.724Z,49.62
2023-05-06T07:54:00.760Z,50.16
2023-05-06T07:55:00.805Z,50.14
2023-05-06T07:56:00.880Z,50.33
2023-05-06T07:57:00.907Z,48.79
2023-05-06T07:58:00.890Z,48.40
2023-05-06T07:59:00.910Z,48.20
2023-05-06T08:00:00.991Z,48.51
2023-05-06T08:01:01.055Z,49.08
2023-05-06T08:02:01.051Z,49.28
2023-05-06T08:03:01.148Z,49.21
2023-05-06T08:04:01.240Z,49.01
2023-05-06T08:05:01.159Z,48.92
2023-05-06T08:06:01.117Z,48.82
2023-05-06T08:07:01.126Z,47.72
2023-05-06T08:08:01.773Z,48.74
2023-05-06T08:09:01.194Z,48.15
2023-05-06T08:10:01.106Z,47.79
2023-05-06T08:11:01.199Z,48.06
2023-05-06T08:12:01.137Z,48.91
2023-05-06T08:13:01.254Z,48.41
2023-05-06T08:14:01.170Z,49.26
2023-05-06T08:15:01.146Z,49.02
2023-05-06T08:16:01.780Z,49.09
2023-05-06T08:17:01.270Z,50.45
2023-05-06T08:18:10.234Z,49.20
2023-05-06T08:19:02.285Z,50.20
2023-05-06T08:20:01.272Z,49.28
2023-05-06T08:21:01.342Z,49.69
2023-05-06T08:22:01.234Z,49.02
2023-05-06T08:23:01.288Z,49.74
2023-05-06T08:24:01.273Z,50.82
2023-05-06T08:25:01.228Z,51.03
2023-05-06T08:26:01.178Z,51.03
2023-05-06T08:27:01.256Z,51.28
2023-05-06T08:28:01.220Z,51.42
2023-05-06T08:29:01.193Z,51.21
2023-05-06T08:30:01.199Z,50.80
2023-05-06T08:31:01.300Z,50.60
2023-05-06T08:32:01.254Z,52.84
2023-05-06T08:33:01.178Z,52.44
2023-05-06T08:34:01.224Z,53.88
2023-05-06T08:35:01.158Z,54.75
2023-05-06T08:36:01.246Z,55.02
2023-05-06T08:37:01.234Z,55.23
2023-05-06T08:38:01.265Z,56.06
2023-05-06T08:39:01.372Z,57.80
2023-05-06T08:40:01.339Z,55.04
2023-05-06T08:41:01.308Z,55.61
2023-05-06T08:42:01.369Z,56.34
2023-05-06T08:43:01.340Z,56.34
2023-05-06T08:44:01.362Z,55.68
2023-05-06T08:45:01.336Z,55.85
2023-05-06T08:46:01.467Z,56.10
2023-05-06T08:47:02.344Z,56.71
2023-05-06T08:48:01.474Z,56.21
2023-05-06T08:49:01.572Z,56.92
2023-05-06T08:50:01.475Z,55.96
2023-05-06T08:51:01.561Z,56.79
2023-05-06T08:52:01.522Z,56.29
2023-05-06T08:53:01.633Z,57.05
2023-05-06T08:54:01.613Z,58.70
2023-05-06T08:55:01.810Z,58.50
2023-05-06T08:56:01.747Z,57.59
2023-05-06T08:57:01.780Z,57.42
2023-05-06T08:58:01.825Z,58.59
2023-05-06T08:59:02.263Z,58.39
2023-05-06T09:00:01.965Z,58.61
2023-05-06T09:01:01.914Z,59.47
2023-05-06T09:02:01.968Z,59.44
2023-05-06T09:03:02.061Z,60.18
2023-05-06T09:04:02.811Z,60.21
2023-05-06T09:05:01.994Z,59.60
2023-05-06T09:06:02.039Z,59.42
2023-05-06T09:07:02.075Z,58.51
2023-05-06T09:08:02.090Z,59.11
2023-05-06T09:09:02.167Z,59.32
2023-05-06T09:10:02.218Z,58.83
2023-05-06T09:11:02.244Z,56.75
2023-05-06T09:12:02.295Z,58.23
2023-05-06T09:13:02.448Z,58.42
2023-05-06T09:14:02.385Z,57.39
2023-05-06T09:15:02.425Z,55.09
2023-05-06T09:16:02.538Z,55.40
2023-05-06T09:17:02.495Z,56.18
2023-05-06T09:18:02.500Z,56.55
2023-05-06T09:19:02.434Z,55.92
2023-05-06T09:20:02.504Z,55.90
2023-05-06T09:21:02.557Z,55.59
2023-05-06T09:22:02.539Z,55.61
2023-05-06T09:23:02.574Z,56.49
2023-05-06T09:24:02.678Z,58.05
2023-05-06T09:25:02.714Z,57.28
2023-05-06T09:26:02.682Z,58.24
2023-05-06T09:27:02.770Z,58.15
2023-05-06T09:28:02.831Z,58.18
2023-05-06T09:29:02.811Z,58.33
2023-05-06T09:30:02.879Z,59.44
2023-05-06T09:31:03.327Z,59.21
2023-05-06T09:32:03.022Z,60.43
2023-05-06T09:33:03.101Z,60.99
2023-05-06T09:34:03.079Z,60.47
2023-05-06T09:35:03.159Z,60.13
2023-05-06T09:36:03.222Z,60.62
2023-05-06T09:37:03.247Z,59.90
2023-05-06T09:38:05.270Z,60.35
2023-05-06T09:39:03.238Z,59.66
2023-05-06T09:40:03.268Z,59.35
2023-05-06T09:41:03.296Z,59.73
2023-05-06T09:42:03.207Z,59.99
2023-05-06T09:43:03.259Z,58.33
2023-05-06T09:44:03.221Z,59.71
2023-05-06T09:45:03.208Z,60.67
2023-05-06T09:46:03.284Z,59.50
2023-05-06T09:47:03.175Z,58.75
2023-05-06T09:48:03.248Z,60.21
2023-05-06T09:49:03.201Z,58.98
2023-05-06T09:50:03.226Z,58.62
2023-05-06T09:51:03.163Z,58.74
2023-05-06T09:52:03.169Z,58.81
2023-05-06T09:53:03.159Z,59.38
2023-05-06T09:54:03.155Z,60.29
2023-05-06T09:55:03.173Z,58.40
2023-05-06T09:56:03.138Z,56.76
2023-05-06T09:57:03.159Z,56.25
2023-05-06T09:58:03.141Z,55.23
2023-05-06T09:59:03.140Z,54.51
2023-05-06T10:00:03.112Z,56.07
2023-05-06T10:01:03.079Z,55.18
2023-05-06T10:02:03.116Z,54.41
2023-05-06T10:03:03.177Z,54.49
2023-05-06T10:04:03.328Z,54.88
2023-05-06T10:05:03.369Z,53.36
2023-05-06T10:06:03.102Z,52.32
2023-05-06T10:07:03.113Z,53.02
2023-05-06T10:08:03.062Z,52.42
2023-05-06T10:09:03.092Z,51.47
2023-05-06T10:10:03.037Z,50.88
2023-05-06T10:11:03.077Z,51.58
2023-05-06T10:12:03.031Z,48.00
2023-05-06T10:13:03.109Z,48.23
2023-05-06T10:14:03.068Z,48.77
2023-05-06T10:15:03.056Z,50.16
2023-05-06T10:16:03.036Z,50.78
2023-05-06T10:17:03.013Z,49.48
2023-05-06T10:18:03.094Z,50.46
2023-05-06T10:19:03.341Z,49.80
2023-05-06T10:20:02.998Z,50.04
2023-05-06T10:21:03.035Z,50.29
2023-05-06T10:22:04.466Z,49.07
2023-05-06T10:23:03.160Z,48.05
2023-05-06T10:24:03.177Z,48.16
2023-05-06T10:25:03.167Z,48.55
2023-05-06T10:26:03.188Z,47.10
2023-05-06T10:27:03.230Z,47.02
2023-05-06T10:28:04.902Z,46.22
2023-05-06T10:29:03.354Z,47.50
2023-05-06T10:30:03.276Z,48.42
2023-05-06T10:31:03.230Z,46.80
2023-05-06T10:32:03.398Z,47.25
2023-05-06T10:33:03.328Z,46.83
2023-05-06T10:34:03.253Z,45.24
2023-05-06T10:35:03.196Z,45.13
2023-05-06T10:36:03.218Z,45.01
2023-05-06T10:37:03.176Z,44.56
2023-05-06T10:38:03.198Z,44.38
2023-05-06T10:39:03.165Z,43.73
2023-05-06T10:40:03.157Z,43.95
2023-05-06T10:41:03.181Z,44.64
2023-05-06T10:42:03.217Z,45.11
2023-05-06T10:43:03.170Z,44.81
2023-05-06T10:44:03.185Z,44.38
2023-05-06T10:45:03.146Z,44.04
2023-05-06T10:46:03.204Z,43.94
2023-05-06T10:47:03.111Z,44.07
2023-05-06T10:48:03.133Z,43.75
2023-05-06T10:49:03.116Z,43.76
2023-05-06T10:50:03.110Z,44.03
2023-05-06T10:51:03.130Z,43.99
2023-05-06T10:52:03.117Z,43.54
2023-05-06T10:53:03.088Z,42.81
2023-05-06T10:54:03.103Z,42.70
2023-05-06T10:55:03.052Z,43.02
2023-05-06T10:56:03.068Z,42.84
2023-05-06T10:57:03.066Z,43.35
2023-05-06T10:58:03.106Z,43.45
2023-05-06T10:59:03.054Z,43.26
2023-05-06T11:00:03.038Z,43.03
2023-05-06T11:01:03.250Z,42.72
2023-05-06T11:02:03.033Z,42.84
2023-05-06T11:03:03.152Z,42.39
2023-05-06T11:04:03.017Z,42.45
2023-05-06T11:05:03.008Z,42.87
2023-05-06T11:06:03.013Z,42.82
2023-05-06T11:07:02.974Z,42.27
2023-05-06T11:08:02.965Z,41.51
2023-05-06T11:09:02.990Z,41.06
2023-05-06T11:10:02.949Z,41.80
2023-05-06T11:11:02.952Z,41.97
2023-05-06T11:12:02.935Z,42.15
2023-05-06T11:13:03.013Z,41.78
2023-05-06T11:14:02.984Z,41.20
2023-05-06T11:15:02.938Z,41.43
2023-05-06T11:16:02.947Z,42.69
2023-05-06T11:17:03.113Z,43.38
2023-05-06T11:18:02.951Z,43.09
2023-05-06T11:19:02.952Z,42.83
2023-05-06T11:20:02.914Z,42.50
2023-05-06T11:21:03.284Z,41.42
2023-05-06T11:22:02.919Z,41.32
2023-05-06T11:23:02.881Z,41.15
2023-05-06T11:24:02.901Z,41.19
2023-05-06T11:25:02.967Z,40.90
2023-05-06T11:26:02.971Z,41.26
2023-05-06T11:27:02.966Z,41.80
2023-05-06T11:28:02.989Z,41.32
2023-05-06T11:29:03.036Z,40.87
2023-05-06T11:30:03.062Z,41.23
2023-05-06T11:31:03.150Z,40.90
2023-05-06T11:32:03.089Z,40.64
2023-05-06T11:33:05.207Z,40.32
2023-05-06T11:34:03.095Z,40.42
2023-05-06T11:35:03.134Z,39.34
2023-05-06T11:36:03.173Z,40.00
2023-05-06T11:37:03.136Z,39.77
2023-05-06T11:38:03.186Z,39.51
2023-05-06T11:39:05.134Z,38.31
2023-05-06T11:40:03.243Z,38.22
2023-05-06T11:41:03.210Z,38.51
2023-05-06T11:42:03.231Z,38.52
2023-05-06T11:43:03.300Z,37.67
2023-05-06T11:44:03.268Z,38.31
2023-05-06T11:45:03.295Z,39.13
2023-05-06T11:46:03.425Z,39.19
2023-05-06T11:47:03.326Z,37.50
2023-05-06T11:48:03.434Z,37.17
2023-05-06T11:49:03.825Z,35.74
2023-05-06T11:50:03.496Z,36.96
2023-05-06T11:51:03.552Z,36.04
2023-05-06T11:52:03.567Z,34.80
2023-05-06T11:53:03.536Z,35.11
2023-05-06T11:54:03.604Z,35.23
2023-05-06T11:55:03.647Z,37.20
2023-05-06T11:56:03.694Z,38.18
2023-05-06T11:57:03.721Z,37.51
2023-05-06T11:58:03.780Z,37.65
2023-05-06T11:59:03.798Z,38.36
2023-05-06T12:00:03.823Z,37.64
2023-05-06T12:01:03.863Z,37.90
2023-05-06T12:02:03.854Z,37.63
2023-05-06T12:03:04.022Z,36.96
2023-05-06T12:04:04.141Z,36.47
2023-05-06T12:05:04.068Z,36.62
2023-05-06T12:06:04.028Z,35.51
2023-05-06T12:07:04.112Z,34.93
2023-05-06T12:08:06.394Z,34.48
2023-05-06T12:09:05.105Z,35.02
2023-05-06T12:10:04.109Z,34.49
2023-05-06T12:11:04.124Z,34.17
2023-05-06T12:12:04.068Z,34.53
2023-05-06T12:13:04.100Z,34.18
2023-05-06T12:14:04.078Z,34.11
2023-05-06T12:15:04.103Z,35.12
2023-05-06T12:16:04.088Z,35.08
2023-05-06T12:17:04.035Z,34.57
2023-05-06T12:18:04.079Z,34.23
2023-05-06T12:19:04.318Z,33.87
2023-05-06T12:20:04.052Z,33.87
2023-05-06T12:21:04.045Z,33.20
2023-05-06T12:22:04.022Z,33.65
2023-05-06T12:23:04.045Z,34.74
2023-05-06T12:24:04.064Z,34.91
2023-05-06T12:25:04.082Z,34.89
2023-05-06T12:26:04.878Z,34.94
2023-05-06T12:27:04.165Z,34.98
2023-05-06T12:28:04.289Z,34.96
2023-05-06T12:29:04.373Z,34.57
2023-05-06T12:30:04.231Z,35.01
2023-05-06T12:31:04.187Z,35.38
2023-05-06T12:32:04.284Z,34.94
2023-05-06T12:33:04.362Z,34.31
2023-05-06T12:34:04.297Z,34.52
2023-05-06T12:35:04.321Z,34.49
2023-05-06T12:36:04.334Z,34.55
2023-05-06T12:37:04.359Z,34.14
2023-05-06T12:38:04.372Z,33.43
2023-05-06T12:39:04.393Z,33.50
2023-05-06T12:40:04.477Z,33.42
2023-05-06T12:41:05.379Z,33.41
2023-05-06T12:42:04.457Z,32.78
2023-05-06T12:43:04.472Z,33.41
2023-05-06T12:44:04.544Z,34.35
2023-05-06T12:45:04.584Z,35.82
2023-05-06T12:46:04.614Z,35.88
2023-05-06T12:47:04.653Z,35.89
2023-05-06T12:48:04.696Z,35.26
2023-05-06T12:49:04.683Z,34.71
2023-05-06T12:50:04.710Z,33.98
2023-05-06T12:51:04.746Z,33.79
2023-05-06T12:52:04.746Z,33.98
2023-05-06T12:53:04.828Z,33.94